sensor_id;sensor_type;location;lat;lon;timestamp;P1;durP1;ratioP1;P2;durP2;ratioP2
47089;SDS011;32840;52.516;13.294;2022-08-19T00:01:42;13.02;;;11.77;;
47089;SDS011;32840;52.516;13.294;2022-08-19T00:04:31;12.43;;;11.07;;
47089;SDS011;32840;52.516;13.294;2022-08-19T00:07:18;13.25;;;11.02;;
47089;SDS011;32840;52.516;13.294;2022-08-19T00:10:12;11.98;;;10.77;;
47089;SDS011;32840;52.516;13.294;2022-08-19T00:12:58;11.57;;;10.48;;
47089;SDS011;32840;52.516;13.294;2022-08-19T00:15:43;12.13;;;10.93;;
47089;SDS011;32840;52.516;13.294;2022-08-19T00:18:28;12.48;;;11.27;;
47089;SDS011;32840;52.516;13.294;2022-08-19T00:21:13;12.65;;;11.35;;
47089;SDS011;32840;52.516;13.294;2022-08-19T00:23:59;14.57;;;11.18;;
47089;SDS011;32840;52.516;13.294;2022-08-19T00:26:44;12.30;;;11.00;;
47089;SDS011;32840;52.516;13.294;2022-08-19T00:29:29;11.15;;;10.05;;
47089;SDS011;32840;52.516;13.294;2022-08-19T00:32:14;11.35;;;10.35;;
47089;SDS011;32840;52.516;13.294;2022-08-19T00:35:00;13.15;;;10.77;;
47089;SDS011;32840;52.516;13.294;2022-08-19T00:37:46;12.95;;;11.65;;
47089;SDS011;32840;52.516;13.294;2022-08-19T00:40:32;12.13;;;10.93;;
47089;SDS011;32840;52.516;13.294;2022-08-19T00:43:19;12.07;;;10.93;;
47089;SDS011;32840;52.516;13.294;2022-08-19T00:46:06;11.63;;;10.43;;
47089;SDS011;32840;52.516;13.294;2022-08-19T00:48:51;13.15;;;10.93;;
47089;SDS011;32840;52.516;13.294;2022-08-19T00:51:36;11.20;;;10.00;;
47089;SDS011;32840;52.516;13.294;2022-08-19T00:54:21;12.15;;;10.95;;
47089;SDS011;32840;52.516;13.294;2022-08-19T00:57:08;11.50;;;10.30;;
47089;SDS011;32840;52.516;13.294;2022-08-19T00:59:57;12.60;;;11.18;;
47089;SDS011;32840;52.516;13.294;2022-08-19T01:02:43;12.02;;;10.77;;
47089;SDS011;32840;52.516;13.294;2022-08-19T01:05:28;12.35;;;10.93;;
47089;SDS011;32840;52.516;13.294;2022-08-19T01:08:14;12.38;;;10.93;;
47089;SDS011;32840;52.516;13.294;2022-08-19T01:11:00;11.57;;;10.48;;
47089;SDS011;32840;52.516;13.294;2022-08-19T01:13:45;12.05;;;10.95;;
47089;SDS011;32840;52.516;13.294;2022-08-19T01:16:30;12.77;;;11.48;;
47089;SDS011;32840;52.516;13.294;2022-08-19T01:19:25;11.95;;;10.85;;
47089;SDS011;32840;52.516;13.294;2022-08-19T01:22:31;12.15;;;11.05;;
47089;SDS011;32840;52.516;13.294;2022-08-19T01:25:26;12.60;;;11.40;;
47089;SDS011;32840;52.516;13.294;2022-08-19T01:28:16;12.63;;;10.73;;
47089;SDS011;32840;52.516;13.294;2022-08-19T01:31:06;15.07;;;12.52;;
47089;SDS011;32840;52.516;13.294;2022-08-19T01:33:57;13.05;;;11.70;;
47089;SDS011;32840;52.516;13.294;2022-08-19T01:36:43;12.95;;;11.55;;
47089;SDS011;32840;52.516;13.294;2022-08-19T01:39:33;13.57;;;12.23;;
47089;SDS011;32840;52.516;13.294;2022-08-19T01:42:18;14.27;;;12.30;;
47089;SDS011;32840;52.516;13.294;2022-08-19T01:45:04;15.02;;;12.90;;
47089;SDS011;32840;52.516;13.294;2022-08-19T01:47:50;13.38;;;11.90;;
47089;SDS011;32840;52.516;13.294;2022-08-19T01:50:35;12.98;;;11.57;;
47089;SDS011;32840;52.516;13.294;2022-08-19T01:53:20;17.08;;;13.57;;
47089;SDS011;32840;52.516;13.294;2022-08-19T01:56:06;14.13;;;11.73;;
47089;SDS011;32840;52.516;13.294;2022-08-19T01:58:52;16.92;;;13.65;;
47089;SDS011;32840;52.516;13.294;2022-08-19T02:01:42;16.42;;;14.00;;
47089;SDS011;32840;52.516;13.294;2022-08-19T02:04:27;15.75;;;13.95;;
47089;SDS011;32840;52.516;13.294;2022-08-19T02:07:12;17.35;;;13.38;;
47089;SDS011;32840;52.516;13.294;2022-08-19T02:09:57;16.63;;;13.35;;
47089;SDS011;32840;52.516;13.294;2022-08-19T02:12:41;15.70;;;13.02;;
47089;SDS011;32840;52.516;13.294;2022-08-19T02:15:26;19.55;;;14.43;;
47089;SDS011;32840;52.516;13.294;2022-08-19T02:18:12;16.70;;;13.13;;
47089;SDS011;32840;52.516;13.294;2022-08-19T02:20:57;19.10;;;12.43;;
47089;SDS011;32840;52.516;13.294;2022-08-19T02:23:42;18.33;;;13.38;;
47089;SDS011;32840;52.516;13.294;2022-08-19T02:26:28;16.48;;;12.80;;
47089;SDS011;32840;52.516;13.294;2022-08-19T02:29:12;16.63;;;13.23;;
47089;SDS011;32840;52.516;13.294;2022-08-19T02:31:57;14.07;;;12.48;;
47089;SDS011;32840;52.516;13.294;2022-08-19T02:34:42;14.68;;;12.35;;
47089;SDS011;32840;52.516;13.294;2022-08-19T02:37:27;14.60;;;13.13;;
47089;SDS011;32840;52.516;13.294;2022-08-19T02:40:31;15.43;;;12.73;;
47089;SDS011;32840;52.516;13.294;2022-08-19T02:43:19;15.32;;;13.90;;
47089;SDS011;32840;52.516;13.294;2022-08-19T02:49:00;15.23;;;12.70;;
47089;SDS011;32840;52.516;13.294;2022-08-19T02:51:46;14.30;;;12.90;;
47089;SDS011;32840;52.516;13.294;2022-08-19T02:54:31;13.25;;;11.80;;
47089;SDS011;32840;52.516;13.294;2022-08-19T02:57:16;14.23;;;12.85;;
47089;SDS011;32840;52.516;13.294;2022-08-19T03:00:03;15.10;;;13.18;;
47089;SDS011;32840;52.516;13.294;2022-08-19T03:02:50;14.82;;;13.30;;
47089;SDS011;32840;52.516;13.294;2022-08-19T03:05:35;14.13;;;12.50;;
47089;SDS011;32840;52.516;13.294;2022-08-19T03:08:20;13.98;;;12.25;;
47089;SDS011;32840;52.516;13.294;2022-08-19T03:11:06;14.90;;;13.20;;
47089;SDS011;32840;52.516;13.294;2022-08-19T03:13:56;15.95;;;13.82;;
47089;SDS011;32840;52.516;13.294;2022-08-19T03:16:44;14.38;;;12.98;;
47089;SDS011;32840;52.516;13.294;2022-08-19T03:19:30;14.60;;;13.10;;
47089;SDS011;32840;52.516;13.294;2022-08-19T03:22:15;16.08;;;13.50;;
47089;SDS011;32840;52.516;13.294;2022-08-19T03:25:00;14.63;;;13.15;;
47089;SDS011;32840;52.516;13.294;2022-08-19T03:27:45;17.17;;;14.43;;
47089;SDS011;32840;52.516;13.294;2022-08-19T03:30:32;15.07;;;13.27;;
47089;SDS011;32840;52.516;13.294;2022-08-19T03:33:17;14.82;;;13.20;;
47089;SDS011;32840;52.516;13.294;2022-08-19T03:36:04;14.05;;;12.63;;
47089;SDS011;32840;52.516;13.294;2022-08-19T03:38:53;15.05;;;13.55;;
47089;SDS011;32840;52.516;13.294;2022-08-19T03:41:41;14.70;;;13.23;;
47089;SDS011;32840;52.516;13.294;2022-08-19T03:44:27;16.48;;;13.90;;
47089;SDS011;32840;52.516;13.294;2022-08-19T03:47:13;17.65;;;14.85;;
47089;SDS011;32840;52.516;13.294;2022-08-19T03:50:00;16.85;;;15.13;;
47089;SDS011;32840;52.516;13.294;2022-08-19T03:52:49;17.20;;;15.25;;
47089;SDS011;32840;52.516;13.294;2022-08-19T03:55:39;17.30;;;15.50;;
47089;SDS011;32840;52.516;13.294;2022-08-19T03:58:25;17.17;;;15.38;;
47089;SDS011;32840;52.516;13.294;2022-08-19T04:01:14;16.15;;;14.40;;
47089;SDS011;32840;52.516;13.294;2022-08-19T04:04:01;15.35;;;13.80;;
47089;SDS011;32840;52.516;13.294;2022-08-19T04:06:47;14.13;;;12.73;;
47089;SDS011;32840;52.516;13.294;2022-08-19T04:09:33;16.40;;;14.80;;
47089;SDS011;32840;52.516;13.294;2022-08-19T04:12:20;15.95;;;14.38;;
47089;SDS011;32840;52.516;13.294;2022-08-19T04:15:05;16.98;;;15.27;;
47089;SDS011;32840;52.516;13.294;2022-08-19T04:17:51;14.82;;;13.23;;
47089;SDS011;32840;52.516;13.294;2022-08-19T04:20:43;16.00;;;14.25;;
47089;SDS011;32840;52.516;13.294;2022-08-19T04:23:30;16.38;;;14.18;;
47089;SDS011;32840;52.516;13.294;2022-08-19T04:26:16;15.35;;;13.90;;
47089;SDS011;32840;52.516;13.294;2022-08-19T04:29:09;15.30;;;13.57;;
47089;SDS011;32840;52.516;13.294;2022-08-19T04:31:56;15.00;;;12.82;;
47089;SDS011;32840;52.516;13.294;2022-08-19T04:34:42;15.77;;;14.05;;
47089;SDS011;32840;52.516;13.294;2022-08-19T04:37:27;14.25;;;12.95;;
47089;SDS011;32840;52.516;13.294;2022-08-19T04:40:16;15.80;;;14.13;;
47089;SDS011;32840;52.516;13.294;2022-08-19T04:43:20;14.23;;;12.68;;
47089;SDS011;32840;52.516;13.294;2022-08-19T04:46:09;15.40;;;12.93;;
47089;SDS011;32840;52.516;13.294;2022-08-19T04:51:41;14.43;;;12.98;;
47089;SDS011;32840;52.516;13.294;2022-08-19T04:54:28;13.77;;;12.10;;
47089;SDS011;32840;52.516;13.294;2022-08-19T04:57:12;13.82;;;12.35;;
47089;SDS011;32840;52.516;13.294;2022-08-19T04:59:57;13.50;;;12.15;;
47089;SDS011;32840;52.516;13.294;2022-08-19T05:02:42;13.32;;;12.02;;
47089;SDS011;32840;52.516;13.294;2022-08-19T05:05:27;13.27;;;11.95;;
47089;SDS011;32840;52.516;13.294;2022-08-19T05:08:13;13.30;;;11.82;;
47089;SDS011;32840;52.516;13.294;2022-08-19T05:13:53;16.15;;;12.35;;
47089;SDS011;32840;52.516;13.294;2022-08-19T05:16:38;13.10;;;11.50;;
47089;SDS011;32840;52.516;13.294;2022-08-19T05:19:23;12.32;;;11.02;;
47089;SDS011;32840;52.516;13.294;2022-08-19T05:22:27;13.07;;;11.60;;
47089;SDS011;32840;52.516;13.294;2022-08-19T05:25:19;14.68;;;12.48;;
47089;SDS011;32840;52.516;13.294;2022-08-19T05:28:05;14.27;;;12.90;;
47089;SDS011;32840;52.516;13.294;2022-08-19T05:30:50;13.23;;;11.82;;
47089;SDS011;32840;52.516;13.294;2022-08-19T05:33:34;14.65;;;12.07;;
47089;SDS011;32840;52.516;13.294;2022-08-19T05:36:19;13.50;;;12.10;;
47089;SDS011;32840;52.516;13.294;2022-08-19T05:39:05;13.57;;;12.02;;
47089;SDS011;32840;52.516;13.294;2022-08-19T05:41:52;13.88;;;12.50;;
47089;SDS011;32840;52.516;13.294;2022-08-19T05:44:42;13.32;;;11.95;;
47089;SDS011;32840;52.516;13.294;2022-08-19T05:47:28;13.75;;;12.25;;
47089;SDS011;32840;52.516;13.294;2022-08-19T05:50:13;14.15;;;12.63;;
47089;SDS011;32840;52.516;13.294;2022-08-19T05:52:58;14.18;;;12.32;;
47089;SDS011;32840;52.516;13.294;2022-08-19T05:55:42;14.18;;;12.68;;
47089;SDS011;32840;52.516;13.294;2022-08-19T05:58:27;13.13;;;11.82;;
47089;SDS011;32840;52.516;13.294;2022-08-19T06:01:14;14.45;;;11.90;;
47089;SDS011;32840;52.516;13.294;2022-08-19T06:04:00;13.43;;;12.23;;
47089;SDS011;32840;52.516;13.294;2022-08-19T06:06:45;13.40;;;12.10;;
47089;SDS011;32840;52.516;13.294;2022-08-19T06:09:32;18.08;;;16.20;;
47089;SDS011;32840;52.516;13.294;2022-08-19T06:12:17;13.43;;;11.98;;
47089;SDS011;32840;52.516;13.294;2022-08-19T06:15:03;13.70;;;12.10;;
47089;SDS011;32840;52.516;13.294;2022-08-19T06:17:51;13.15;;;11.85;;
47089;SDS011;32840;52.516;13.294;2022-08-19T06:20:36;16.15;;;14.48;;
47089;SDS011;32840;52.516;13.294;2022-08-19T06:23:20;16.05;;;14.35;;
47089;SDS011;32840;52.516;13.294;2022-08-19T06:26:05;15.00;;;13.43;;
47089;SDS011;32840;52.516;13.294;2022-08-19T06:28:52;15.05;;;13.55;;
47089;SDS011;32840;52.516;13.294;2022-08-19T06:31:40;13.43;;;12.13;;
47089;SDS011;32840;52.516;13.294;2022-08-19T06:34:28;15.00;;;13.50;;
47089;SDS011;32840;52.516;13.294;2022-08-19T06:37:15;13.68;;;12.27;;
47089;SDS011;32840;52.516;13.294;2022-08-19T06:39:59;14.05;;;12.52;;
47089;SDS011;32840;52.516;13.294;2022-08-19T06:42:44;19.75;;;12.85;;
47089;SDS011;32840;52.516;13.294;2022-08-19T06:45:31;14.80;;;13.40;;
47089;SDS011;32840;52.516;13.294;2022-08-19T06:48:17;17.60;;;13.50;;
47089;SDS011;32840;52.516;13.294;2022-08-19T06:51:02;16.05;;;14.38;;
47089;SDS011;32840;52.516;13.294;2022-08-19T06:53:50;15.68;;;14.18;;
47089;SDS011;32840;52.516;13.294;2022-08-19T06:56:37;16.90;;;15.18;;
47089;SDS011;32840;52.516;13.294;2022-08-19T06:59:22;15.88;;;14.30;;
47089;SDS011;32840;52.516;13.294;2022-08-19T07:02:11;15.85;;;14.35;;
47089;SDS011;32840;52.516;13.294;2022-08-19T07:04:56;17.42;;;15.50;;
47089;SDS011;32840;52.516;13.294;2022-08-19T07:07:46;16.98;;;15.18;;
47089;SDS011;32840;52.516;13.294;2022-08-19T07:10:31;17.25;;;15.55;;
47089;SDS011;32840;52.516;13.294;2022-08-19T07:13:16;16.35;;;14.65;;
47089;SDS011;32840;52.516;13.294;2022-08-19T07:16:03;15.50;;;13.90;;
47089;SDS011;32840;52.516;13.294;2022-08-19T07:18:49;15.05;;;13.70;;
47089;SDS011;32840;52.516;13.294;2022-08-19T07:21:34;16.95;;;15.32;;
47089;SDS011;32840;52.516;13.294;2022-08-19T07:24:21;17.15;;;14.35;;
47089;SDS011;32840;52.516;13.294;2022-08-19T07:27:07;16.83;;;15.10;;
47089;SDS011;32840;52.516;13.294;2022-08-19T07:29:54;16.48;;;14.82;;
47089;SDS011;32840;52.516;13.294;2022-08-19T07:32:39;17.02;;;15.30;;
47089;SDS011;32840;52.516;13.294;2022-08-19T07:35:24;17.52;;;15.82;;
47089;SDS011;32840;52.516;13.294;2022-08-19T07:38:09;17.58;;;15.77;;
47089;SDS011;32840;52.516;13.294;2022-08-19T07:40:55;17.52;;;15.73;;
47089;SDS011;32840;52.516;13.294;2022-08-19T07:43:40;20.17;;;16.67;;
47089;SDS011;32840;52.516;13.294;2022-08-19T07:46:25;15.75;;;14.20;;
47089;SDS011;32840;52.516;13.294;2022-08-19T07:49:15;15.63;;;14.23;;
47089;SDS011;32840;52.516;13.294;2022-08-19T07:52:07;21.42;;;19.45;;
47089;SDS011;32840;52.516;13.294;2022-08-19T07:54:53;18.42;;;16.63;;
47089;SDS011;32840;52.516;13.294;2022-08-19T07:57:38;17.58;;;15.95;;
47089;SDS011;32840;52.516;13.294;2022-08-19T08:00:23;20.95;;;18.85;;
47089;SDS011;32840;52.516;13.294;2022-08-19T08:03:08;19.65;;;17.65;;
47089;SDS011;32840;52.516;13.294;2022-08-19T08:05:53;19.63;;;17.63;;
47089;SDS011;32840;52.516;13.294;2022-08-19T08:08:57;18.00;;;16.30;;
47089;SDS011;32840;52.516;13.294;2022-08-19T08:12:09;18.45;;;16.73;;
47089;SDS011;32840;52.516;13.294;2022-08-19T08:15:06;18.73;;;16.83;;
47089;SDS011;32840;52.516;13.294;2022-08-19T08:17:53;20.27;;;18.38;;
47089;SDS011;32840;52.516;13.294;2022-08-19T08:20:39;18.38;;;16.60;;
47089;SDS011;32840;52.516;13.294;2022-08-19T08:23:24;18.35;;;16.13;;
47089;SDS011;32840;52.516;13.294;2022-08-19T08:26:09;18.15;;;16.30;;
47089;SDS011;32840;52.516;13.294;2022-08-19T08:28:55;19.55;;;17.60;;
47089;SDS011;32840;52.516;13.294;2022-08-19T08:31:40;19.17;;;17.17;;
47089;SDS011;32840;52.516;13.294;2022-08-19T08:34:27;33.40;;;30.10;;
47089;SDS011;32840;52.516;13.294;2022-08-19T08:37:12;31.75;;;28.45;;
47089;SDS011;32840;52.516;13.294;2022-08-19T08:39:56;20.33;;;18.33;;
47089;SDS011;32840;52.516;13.294;2022-08-19T08:42:43;19.58;;;17.60;;
47089;SDS011;32840;52.516;13.294;2022-08-19T08:45:47;18.90;;;17.10;;
47089;SDS011;32840;52.516;13.294;2022-08-19T08:48:40;19.60;;;17.60;;
47089;SDS011;32840;52.516;13.294;2022-08-19T08:51:36;19.88;;;17.85;;
47089;SDS011;32840;52.516;13.294;2022-08-19T08:54:39;19.50;;;17.15;;
47089;SDS011;32840;52.516;13.294;2022-08-19T08:57:36;19.10;;;17.10;;
47089;SDS011;32840;52.516;13.294;2022-08-19T09:03:23;18.58;;;16.67;;
47089;SDS011;32840;52.516;13.294;2022-08-19T09:06:23;18.40;;;16.67;;
47089;SDS011;32840;52.516;13.294;2022-08-19T09:09:18;18.38;;;16.75;;
47089;SDS011;32840;52.516;13.294;2022-08-19T09:15:31;19.85;;;17.95;;
47089;SDS011;32840;52.516;13.294;2022-08-19T09:18:22;19.15;;;17.17;;
47089;SDS011;32840;52.516;13.294;2022-08-19T09:21:07;17.80;;;16.08;;
47089;SDS011;32840;52.516;13.294;2022-08-19T09:23:53;19.00;;;16.92;;
47089;SDS011;32840;52.516;13.294;2022-08-19T09:26:38;18.92;;;17.17;;
47089;SDS011;32840;52.516;13.294;2022-08-19T09:29:23;19.17;;;17.33;;
47089;SDS011;32840;52.516;13.294;2022-08-19T09:32:08;17.70;;;15.93;;
47089;SDS011;32840;52.516;13.294;2022-08-19T09:34:53;19.00;;;16.50;;
47089;SDS011;32840;52.516;13.294;2022-08-19T09:37:39;22.52;;;20.40;;
47089;SDS011;32840;52.516;13.294;2022-08-19T09:40:24;25.88;;;23.27;;
47089;SDS011;32840;52.516;13.294;2022-08-19T09:43:09;18.65;;;16.83;;
47089;SDS011;32840;52.516;13.294;2022-08-19T09:45:54;18.52;;;16.58;;
47089;SDS011;32840;52.516;13.294;2022-08-19T09:48:40;18.45;;;16.55;;
47089;SDS011;32840;52.516;13.294;2022-08-19T09:51:25;18.13;;;15.57;;
47089;SDS011;32840;52.516;13.294;2022-08-19T09:54:14;15.80;;;14.20;;
47089;SDS011;32840;52.516;13.294;2022-08-19T09:56:59;23.55;;;19.92;;
47089;SDS011;32840;52.516;13.294;2022-08-19T09:59:44;19.05;;;16.00;;
47089;SDS011;32840;52.516;13.294;2022-08-19T10:02:29;20.35;;;18.25;;
47089;SDS011;32840;52.516;13.294;2022-08-19T10:05:14;18.90;;;17.10;;
47089;SDS011;32840;52.516;13.294;2022-08-19T10:08:19;18.05;;;16.30;;
47089;SDS011;32840;52.516;13.294;2022-08-19T10:11:05;18.45;;;16.60;;
47089;SDS011;32840;52.516;13.294;2022-08-19T10:13:50;29.50;;;24.83;;
47089;SDS011;32840;52.516;13.294;2022-08-19T10:16:36;19.23;;;17.33;;
47089;SDS011;32840;52.516;13.294;2022-08-19T10:19:21;19.67;;;17.67;;
47089;SDS011;32840;52.516;13.294;2022-08-19T10:22:06;18.30;;;16.38;;
47089;SDS011;32840;52.516;13.294;2022-08-19T10:24:51;23.48;;;21.17;;
47089;SDS011;32840;52.516;13.294;2022-08-19T10:27:36;21.23;;;19.08;;
47089;SDS011;32840;52.516;13.294;2022-08-19T10:30:21;15.93;;;14.40;;
47089;SDS011;32840;52.516;13.294;2022-08-19T10:33:06;15.73;;;14.23;;
47089;SDS011;32840;52.516;13.294;2022-08-19T10:35:58;20.98;;;18.67;;
47089;SDS011;32840;52.516;13.294;2022-08-19T10:38:45;16.45;;;14.82;;
47089;SDS011;32840;52.516;13.294;2022-08-19T10:41:32;17.10;;;15.43;;
47089;SDS011;32840;52.516;13.294;2022-08-19T10:44:19;17.00;;;13.80;;
47089;SDS011;32840;52.516;13.294;2022-08-19T10:47:05;15.27;;;13.80;;
47089;SDS011;32840;52.516;13.294;2022-08-19T10:49:51;16.73;;;14.52;;
47089;SDS011;32840;52.516;13.294;2022-08-19T10:52:55;16.33;;;14.68;;
47089;SDS011;32840;52.516;13.294;2022-08-19T10:55:40;16.35;;;14.70;;
47089;SDS011;32840;52.516;13.294;2022-08-19T10:58:43;15.77;;;14.07;;
47089;SDS011;32840;52.516;13.294;2022-08-19T11:01:28;15.88;;;14.35;;
47089;SDS011;32840;52.516;13.294;2022-08-19T11:04:15;17.05;;;15.32;;
47089;SDS011;32840;52.516;13.294;2022-08-19T11:07:02;16.08;;;14.15;;
47089;SDS011;32840;52.516;13.294;2022-08-19T11:09:47;15.65;;;14.05;;
47089;SDS011;32840;52.516;13.294;2022-08-19T11:12:32;16.77;;;15.27;;
47089;SDS011;32840;52.516;13.294;2022-08-19T11:15:17;15.45;;;13.85;;
47089;SDS011;32840;52.516;13.294;2022-08-19T11:18:02;16.60;;;14.90;;
47089;SDS011;32840;52.516;13.294;2022-08-19T11:20:47;15.15;;;13.68;;
47089;SDS011;32840;52.516;13.294;2022-08-19T11:23:32;15.55;;;14.05;;
47089;SDS011;32840;52.516;13.294;2022-08-19T11:26:18;30.90;;;27.75;;
47089;SDS011;32840;52.516;13.294;2022-08-19T11:29:04;15.32;;;13.73;;
47089;SDS011;32840;52.516;13.294;2022-08-19T11:31:55;13.75;;;12.23;;
47089;SDS011;32840;52.516;13.294;2022-08-19T11:34:40;14.80;;;13.40;;
47089;SDS011;32840;52.516;13.294;2022-08-19T11:37:25;18.52;;;16.65;;
47089;SDS011;32840;52.516;13.294;2022-08-19T11:40:10;13.15;;;11.85;;
47089;SDS011;32840;52.516;13.294;2022-08-19T11:42:55;15.30;;;13.70;;
47089;SDS011;32840;52.516;13.294;2022-08-19T11:45:40;14.15;;;12.70;;
47089;SDS011;32840;52.516;13.294;2022-08-19T11:48:25;12.75;;;11.45;;
47089;SDS011;32840;52.516;13.294;2022-08-19T11:51:11;14.23;;;12.93;;
47089;SDS011;32840;52.516;13.294;2022-08-19T11:53:58;14.45;;;12.50;;
47089;SDS011;32840;52.516;13.294;2022-08-19T11:56:44;14.65;;;13.15;;
47089;SDS011;32840;52.516;13.294;2022-08-19T11:59:29;12.77;;;11.57;;
47089;SDS011;32840;52.516;13.294;2022-08-19T12:02:14;13.25;;;11.80;;
47089;SDS011;32840;52.516;13.294;2022-08-19T12:04:59;12.55;;;11.30;;
47089;SDS011;32840;52.516;13.294;2022-08-19T12:07:47;14.38;;;11.52;;
47089;SDS011;32840;52.516;13.294;2022-08-19T12:10:32;12.52;;;10.40;;
47089;SDS011;32840;52.516;13.294;2022-08-19T12:13:17;10.77;;;9.77;;
47089;SDS011;32840;52.516;13.294;2022-08-19T12:16:09;11.18;;;10.10;;
47089;SDS011;32840;52.516;13.294;2022-08-19T12:18:56;11.48;;;10.27;;
47089;SDS011;32840;52.516;13.294;2022-08-19T12:21:43;11.55;;;9.23;;
47089;SDS011;32840;52.516;13.294;2022-08-19T12:24:29;12.07;;;10.95;;
47089;SDS011;32840;52.516;13.294;2022-08-19T12:27:16;11.60;;;10.40;;
47089;SDS011;32840;52.516;13.294;2022-08-19T12:30:02;12.38;;;10.98;;
47089;SDS011;32840;52.516;13.294;2022-08-19T12:32:47;19.73;;;17.65;;
47089;SDS011;32840;52.516;13.294;2022-08-19T12:35:33;29.45;;;26.38;;
47089;SDS011;32840;52.516;13.294;2022-08-19T12:38:18;12.65;;;11.40;;
47089;SDS011;32840;52.516;13.294;2022-08-19T12:41:03;13.30;;;11.95;;
47089;SDS011;32840;52.516;13.294;2022-08-19T12:43:51;11.45;;;10.20;;
47089;SDS011;32840;52.516;13.294;2022-08-19T12:46:37;15.15;;;10.55;;
47089;SDS011;32840;52.516;13.294;2022-08-19T12:49:22;13.80;;;11.43;;
47089;SDS011;32840;52.516;13.294;2022-08-19T12:52:07;12.23;;;10.90;;
47089;SDS011;32840;52.516;13.294;2022-08-19T12:54:53;12.35;;;11.15;;
47089;SDS011;32840;52.516;13.294;2022-08-19T12:57:39;10.73;;;9.63;;
47089;SDS011;32840;52.516;13.294;2022-08-19T13:00:24;11.80;;;10.52;;
47089;SDS011;32840;52.516;13.294;2022-08-19T13:03:09;15.73;;;14.23;;
47089;SDS011;32840;52.516;13.294;2022-08-19T13:05:54;16.83;;;14.18;;
47089;SDS011;32840;52.516;13.294;2022-08-19T13:08:40;15.38;;;13.88;;
47089;SDS011;32840;52.516;13.294;2022-08-19T13:11:24;15.05;;;13.57;;
47089;SDS011;32840;52.516;13.294;2022-08-19T13:14:09;14.13;;;12.73;;
47089;SDS011;32840;52.516;13.294;2022-08-19T13:16:55;14.23;;;12.75;;
47089;SDS011;32840;52.516;13.294;2022-08-19T13:19:41;13.73;;;11.93;;
47089;SDS011;32840;52.516;13.294;2022-08-19T13:22:26;14.00;;;12.52;;
47089;SDS011;32840;52.516;13.294;2022-08-19T13:25:11;13.63;;;11.40;;
47089;SDS011;32840;52.516;13.294;2022-08-19T13:27:56;13.43;;;12.25;;
47089;SDS011;32840;52.516;13.294;2022-08-19T13:30:41;15.82;;;14.32;;
47089;SDS011;32840;52.516;13.294;2022-08-19T13:33:49;16.38;;;14.63;;
47089;SDS011;32840;52.516;13.294;2022-08-19T13:36:34;20.88;;;18.67;;
47089;SDS011;32840;52.516;13.294;2022-08-19T13:39:20;16.90;;;15.18;;
47089;SDS011;32840;52.516;13.294;2022-08-19T13:42:07;12.98;;;10.68;;
47089;SDS011;32840;52.516;13.294;2022-08-19T13:44:53;14.68;;;11.88;;
47089;SDS011;32840;52.516;13.294;2022-08-19T13:47:38;17.75;;;15.10;;
47089;SDS011;32840;52.516;13.294;2022-08-19T13:50:29;14.77;;;11.80;;
47089;SDS011;32840;52.516;13.294;2022-08-19T13:53:16;14.75;;;13.15;;
47089;SDS011;32840;52.516;13.294;2022-08-19T13:56:04;14.93;;;13.32;;
47089;SDS011;32840;52.516;13.294;2022-08-19T13:58:50;11.88;;;10.77;;
47089;SDS011;32840;52.516;13.294;2022-08-19T14:01:35;12.25;;;10.88;;
47089;SDS011;32840;52.516;13.294;2022-08-19T14:04:21;12.23;;;10.95;;
47089;SDS011;32840;52.516;13.294;2022-08-19T14:07:06;12.77;;;11.52;;
47089;SDS011;32840;52.516;13.294;2022-08-19T14:09:50;14.48;;;11.73;;
47089;SDS011;32840;52.516;13.294;2022-08-19T14:12:35;11.95;;;10.77;;
47089;SDS011;32840;52.516;13.294;2022-08-19T14:15:21;12.50;;;11.13;;
47089;SDS011;32840;52.516;13.294;2022-08-19T14:18:07;11.57;;;10.48;;
47089;SDS011;32840;52.516;13.294;2022-08-19T14:20:52;12.02;;;10.13;;
47089;SDS011;32840;52.516;13.294;2022-08-19T14:23:37;11.48;;;10.38;;
47089;SDS011;32840;52.516;13.294;2022-08-19T14:26:22;12.00;;;10.77;;
47089;SDS011;32840;52.516;13.294;2022-08-19T14:29:07;12.50;;;11.02;;
47089;SDS011;32840;52.516;13.294;2022-08-19T14:31:52;13.10;;;9.68;;
47089;SDS011;32840;52.516;13.294;2022-08-19T14:34:37;11.43;;;10.32;;
47089;SDS011;32840;52.516;13.294;2022-08-19T14:37:22;16.92;;;12.48;;
47089;SDS011;32840;52.516;13.294;2022-08-19T14:40:07;15.35;;;13.40;;
47089;SDS011;32840;52.516;13.294;2022-08-19T14:42:53;12.57;;;10.45;;
47089;SDS011;32840;52.516;13.294;2022-08-19T14:45:43;18.63;;;13.52;;
47089;SDS011;32840;52.516;13.294;2022-08-19T14:48:28;13.82;;;11.63;;
47089;SDS011;32840;52.516;13.294;2022-08-19T14:51:13;13.82;;;11.30;;
47089;SDS011;32840;52.516;13.294;2022-08-19T14:53:58;13.23;;;11.27;;
47089;SDS011;32840;52.516;13.294;2022-08-19T14:56:43;13.65;;;10.82;;
47089;SDS011;32840;52.516;13.294;2022-08-19T14:59:28;12.35;;;10.50;;
47089;SDS011;32840;52.516;13.294;2022-08-19T15:02:13;10.15;;;9.07;;
47089;SDS011;32840;52.516;13.294;2022-08-19T15:04:58;15.50;;;13.48;;
47089;SDS011;32840;52.516;13.294;2022-08-19T15:07:43;13.95;;;9.93;;
47089;SDS011;32840;52.516;13.294;2022-08-19T15:10:28;11.52;;;10.43;;
47089;SDS011;32840;52.516;13.294;2022-08-19T15:13:13;11.25;;;10.15;;
47089;SDS011;32840;52.516;13.294;2022-08-19T15:15:57;11.23;;;10.02;;
47089;SDS011;32840;52.516;13.294;2022-08-19T15:18:43;10.90;;;9.80;;
47089;SDS011;32840;52.516;13.294;2022-08-19T15:21:28;14.27;;;9.60;;
47089;SDS011;32840;52.516;13.294;2022-08-19T15:24:14;10.98;;;9.88;;
47089;SDS011;32840;52.516;13.294;2022-08-19T15:27:00;11.05;;;9.85;;
47089;SDS011;32840;52.516;13.294;2022-08-19T15:29:46;13.00;;;11.63;;
47089;SDS011;32840;52.516;13.294;2022-08-19T15:32:31;11.65;;;9.70;;
47089;SDS011;32840;52.516;13.294;2022-08-19T15:35:17;10.88;;;9.25;;
47089;SDS011;32840;52.516;13.294;2022-08-19T15:38:02;10.88;;;9.88;;
47089;SDS011;32840;52.516;13.294;2022-08-19T15:40:48;13.77;;;10.73;;
47089;SDS011;32840;52.516;13.294;2022-08-19T15:43:33;11.73;;;10.70;;
47089;SDS011;32840;52.516;13.294;2022-08-19T15:46:27;11.88;;;10.57;;
47089;SDS011;32840;52.516;13.294;2022-08-19T15:49:15;14.32;;;12.02;;
47089;SDS011;32840;52.516;13.294;2022-08-19T15:52:01;12.20;;;11.10;;
47089;SDS011;32840;52.516;13.294;2022-08-19T15:54:46;13.45;;;12.15;;
47089;SDS011;32840;52.516;13.294;2022-08-19T15:57:31;14.63;;;13.10;;
47089;SDS011;32840;52.516;13.294;2022-08-19T16:00:34;12.82;;;11.50;;
47089;SDS011;32840;52.516;13.294;2022-08-19T16:03:37;12.25;;;10.70;;
47089;SDS011;32840;52.516;13.294;2022-08-19T16:06:45;11.63;;;10.52;;
47089;SDS011;32840;52.516;13.294;2022-08-19T16:09:30;11.68;;;10.57;;
47089;SDS011;32840;52.516;13.294;2022-08-19T16:12:15;11.55;;;10.45;;
47089;SDS011;32840;52.516;13.294;2022-08-19T16:15:02;13.40;;;12.10;;
47089;SDS011;32840;52.516;13.294;2022-08-19T16:17:48;10.70;;;9.73;;